sensor_id;sensor_type;location;lat;lon;timestamp;P1;durP1;ratioP1;P2;durP2;ratioP2
48951;SDS011;34758;42.148;24.744;2023-02-17T00:00:54;52.70;;;32.13;;
48951;SDS011;34758;42.148;24.744;2023-02-17T00:03:23;55.95;;;34.13;;
48951;SDS011;34758;42.148;24.744;2023-02-17T00:05:50;55.03;;;32.42;;
48951;SDS011;34758;42.148;24.744;2023-02-17T00:08:18;54.25;;;34.03;;
48951;SDS011;34758;42.148;24.744;2023-02-17T00:10:54;50.13;;;31.92;;
48951;SDS011;34758;42.148;24.744;2023-02-17T00:13:23;51.35;;;30.90;;
48951;SDS011;34758;42.148;24.744;2023-02-17T00:15:52;53.38;;;29.85;;
48951;SDS011;34758;42.148;24.744;2023-02-17T00:18:21;55.03;;;30.75;;
48951;SDS011;34758;42.148;24.744;2023-02-17T00:20:48;45.17;;;27.05;;
48951;SDS011;34758;42.148;24.744;2023-02-17T00:23:15;41.53;;;26.45;;
48951;SDS011;34758;42.148;24.744;2023-02-17T00:25:44;43.78;;;26.75;;
48951;SDS011;34758;42.148;24.744;2023-02-17T00:28:13;39.50;;;24.90;;
48951;SDS011;34758;42.148;24.744;2023-02-17T00:30:41;41.28;;;25.23;;
48951;SDS011;34758;42.148;24.744;2023-02-17T00:33:08;37.28;;;22.73;;
48951;SDS011;34758;42.148;24.744;2023-02-17T00:35:38;37.50;;;22.50;;
48951;SDS011;34758;42.148;24.744;2023-02-17T00:38:06;38.00;;;22.52;;
48951;SDS011;34758;42.148;24.744;2023-02-17T00:40:34;38.70;;;24.00;;
48951;SDS011;34758;42.148;24.744;2023-02-17T00:43:03;39.85;;;23.58;;
48951;SDS011;34758;42.148;24.744;2023-02-17T00:45:36;35.80;;;23.02;;
48951;SDS011;34758;42.148;24.744;2023-02-17T00:48:03;38.30;;;22.58;;
48951;SDS011;34758;42.148;24.744;2023-02-17T00:50:30;34.38;;;22.17;;
48951;SDS011;34758;42.148;24.744;2023-02-17T00:52:58;36.28;;;21.90;;
48951;SDS011;34758;42.148;24.744;2023-02-17T00:55:27;37.83;;;22.80;;
48951;SDS011;34758;42.148;24.744;2023-02-17T00:57:54;40.33;;;23.75;;
48951;SDS011;34758;42.148;24.744;2023-02-17T01:00:22;37.42;;;24.02;;
48951;SDS011;34758;42.148;24.744;2023-02-17T01:02:51;43.97;;;23.40;;
48951;SDS011;34758;42.148;24.744;2023-02-17T01:05:18;40.90;;;23.77;;
48951;SDS011;34758;42.148;24.744;2023-02-17T01:07:45;38.03;;;23.58;;
48951;SDS011;34758;42.148;24.744;2023-02-17T01:10:14;37.53;;;23.35;;
48951;SDS011;34758;42.148;24.744;2023-02-17T01:12:41;36.72;;;23.15;;
48951;SDS011;34758;42.148;24.744;2023-02-17T01:15:08;36.30;;;23.50;;
48951;SDS011;34758;42.148;24.744;2023-02-17T01:17:36;39.80;;;23.70;;
48951;SDS011;34758;42.148;24.744;2023-02-17T01:20:05;40.90;;;25.02;;
48951;SDS011;34758;42.148;24.744;2023-02-17T01:22:34;42.28;;;24.33;;
48951;SDS011;34758;42.148;24.744;2023-02-17T01:25:02;36.92;;;23.25;;
48951;SDS011;34758;42.148;24.744;2023-02-17T01:27:30;37.78;;;23.15;;
48951;SDS011;34758;42.148;24.744;2023-02-17T01:29:57;39.47;;;23.50;;
48951;SDS011;34758;42.148;24.744;2023-02-17T01:32:24;34.92;;;22.45;;
48951;SDS011;34758;42.148;24.744;2023-02-17T01:34:51;36.55;;;22.98;;
48951;SDS011;34758;42.148;24.744;2023-02-17T01:37:22;40.85;;;24.10;;
48951;SDS011;34758;42.148;24.744;2023-02-17T01:39:49;44.53;;;25.77;;
48951;SDS011;34758;42.148;24.744;2023-02-17T01:42:18;39.08;;;23.73;;
48951;SDS011;34758;42.148;24.744;2023-02-17T01:47:50;39.33;;;23.25;;
48951;SDS011;34758;42.148;24.744;2023-02-17T01:50:21;40.08;;;23.48;;
48951;SDS011;34758;42.148;24.744;2023-02-17T01:52:54;39.53;;;22.70;;
48951;SDS011;34758;42.148;24.744;2023-02-17T01:55:22;37.50;;;23.73;;
48951;SDS011;34758;42.148;24.744;2023-02-17T01:57:50;41.42;;;23.30;;
48951;SDS011;34758;42.148;24.744;2023-02-17T02:00:18;39.63;;;23.40;;
48951;SDS011;34758;42.148;24.744;2023-02-17T02:02:47;40.00;;;23.73;;
48951;SDS011;34758;42.148;24.744;2023-02-17T02:05:15;40.90;;;24.02;;
48951;SDS011;34758;42.148;24.744;2023-02-17T02:07:44;39.33;;;24.17;;
48951;SDS011;34758;42.148;24.744;2023-02-17T02:10:16;40.45;;;23.17;;
48951;SDS011;34758;42.148;24.744;2023-02-17T02:12:44;38.30;;;23.33;;
48951;SDS011;34758;42.148;24.744;2023-02-17T02:15:12;36.72;;;23.23;;
48951;SDS011;34758;42.148;24.744;2023-02-17T02:17:43;36.75;;;22.70;;
48951;SDS011;34758;42.148;24.744;2023-02-17T02:20:30;39.30;;;23.98;;
48951;SDS011;34758;42.148;24.744;2023-02-17T02:23:10;40.10;;;23.88;;
48951;SDS011;34758;42.148;24.744;2023-02-17T02:29:16;36.78;;;22.80;;
48951;SDS011;34758;42.148;24.744;2023-02-17T02:31:57;41.38;;;24.80;;
48951;SDS011;34758;42.148;24.744;2023-02-17T02:34:34;43.00;;;25.50;;
48951;SDS011;34758;42.148;24.744;2023-02-17T02:37:06;40.15;;;24.85;;
48951;SDS011;34758;42.148;24.744;2023-02-17T02:39:36;39.55;;;24.88;;
48951;SDS011;34758;42.148;24.744;2023-02-17T02:42:05;44.63;;;24.77;;
48951;SDS011;34758;42.148;24.744;2023-02-17T02:44:35;37.03;;;23.85;;
48951;SDS011;34758;42.148;24.744;2023-02-17T02:47:03;43.17;;;24.00;;
48951;SDS011;34758;42.148;24.744;2023-02-17T02:49:32;40.75;;;24.20;;
48951;SDS011;34758;42.148;24.744;2023-02-17T02:52:04;42.28;;;23.17;;
48951;SDS011;34758;42.148;24.744;2023-02-17T02:54:37;38.75;;;24.00;;
48951;SDS011;34758;42.148;24.744;2023-02-17T02:57:18;41.08;;;23.60;;
48951;SDS011;34758;42.148;24.744;2023-02-17T02:59:55;40.63;;;25.27;;
48951;SDS011;34758;42.148;24.744;2023-02-17T03:02:32;38.13;;;23.83;;
48951;SDS011;34758;42.148;24.744;2023-02-17T03:05:06;35.03;;;20.20;;
48951;SDS011;34758;42.148;24.744;2023-02-17T03:07:39;40.83;;;24.33;;
48951;SDS011;34758;42.148;24.744;2023-02-17T03:10:08;44.13;;;23.90;;
48951;SDS011;34758;42.148;24.744;2023-02-17T03:12:37;44.53;;;23.92;;
48951;SDS011;34758;42.148;24.744;2023-02-17T03:15:07;38.55;;;23.83;;
48951;SDS011;34758;42.148;24.744;2023-02-17T03:17:38;39.22;;;23.17;;
48951;SDS011;34758;42.148;24.744;2023-02-17T03:20:08;38.13;;;24.02;;
48951;SDS011;34758;42.148;24.744;2023-02-17T03:22:36;42.17;;;24.23;;
48951;SDS011;34758;42.148;24.744;2023-02-17T03:25:07;39.15;;;23.63;;
48951;SDS011;34758;42.148;24.744;2023-02-17T03:27:34;41.75;;;24.58;;
48951;SDS011;34758;42.148;24.744;2023-02-17T03:30:02;40.92;;;22.70;;
48951;SDS011;34758;42.148;24.744;2023-02-17T03:32:30;46.00;;;24.00;;
48951;SDS011;34758;42.148;24.744;2023-02-17T03:34:58;42.50;;;24.55;;
48951;SDS011;34758;42.148;24.744;2023-02-17T03:37:26;41.38;;;24.35;;
48951;SDS011;34758;42.148;24.744;2023-02-17T03:39:53;44.13;;;25.35;;
48951;SDS011;34758;42.148;24.744;2023-02-17T03:42:23;40.42;;;25.17;;
48951;SDS011;34758;42.148;24.744;2023-02-17T03:44:50;41.58;;;23.85;;
48951;SDS011;34758;42.148;24.744;2023-02-17T03:47:19;40.30;;;24.73;;
48951;SDS011;34758;42.148;24.744;2023-02-17T03:49:46;41.15;;;24.42;;
48951;SDS011;34758;42.148;24.744;2023-02-17T03:52:14;37.25;;;22.40;;
48951;SDS011;34758;42.148;24.744;2023-02-17T03:54:42;36.28;;;22.77;;
48951;SDS011;34758;42.148;24.744;2023-02-17T03:57:10;36.33;;;22.73;;
48951;SDS011;34758;42.148;24.744;2023-02-17T03:59:37;35.63;;;21.00;;
48951;SDS011;34758;42.148;24.744;2023-02-17T04:02:04;41.00;;;23.15;;
48951;SDS011;34758;42.148;24.744;2023-02-17T04:04:31;42.20;;;24.00;;
48951;SDS011;34758;42.148;24.744;2023-02-17T04:06:58;38.95;;;24.50;;
48951;SDS011;34758;42.148;24.744;2023-02-17T04:09:25;41.45;;;25.00;;
48951;SDS011;34758;42.148;24.744;2023-02-17T04:11:56;38.05;;;24.02;;
48951;SDS011;34758;42.148;24.744;2023-02-17T04:14:23;40.00;;;23.38;;
48951;SDS011;34758;42.148;24.744;2023-02-17T04:16:53;34.00;;;22.02;;
48951;SDS011;34758;42.148;24.744;2023-02-17T04:19:21;36.00;;;21.98;;
48951;SDS011;34758;42.148;24.744;2023-02-17T04:21:48;38.67;;;23.20;;
48951;SDS011;34758;42.148;24.744;2023-02-17T04:24:15;38.13;;;23.67;;
48951;SDS011;34758;42.148;24.744;2023-02-17T04:26:43;41.50;;;23.05;;
48951;SDS011;34758;42.148;24.744;2023-02-17T04:29:11;36.22;;;22.77;;
48951;SDS011;34758;42.148;24.744;2023-02-17T04:31:38;37.30;;;22.63;;
48951;SDS011;34758;42.148;24.744;2023-02-17T04:34:05;36.85;;;22.98;;
48951;SDS011;34758;42.148;24.744;2023-02-17T04:36:34;37.28;;;22.15;;
48951;SDS011;34758;42.148;24.744;2023-02-17T04:39:01;36.28;;;22.52;;
48951;SDS011;34758;42.148;24.744;2023-02-17T04:41:28;39.58;;;23.05;;
48951;SDS011;34758;42.148;24.744;2023-02-17T04:43:57;34.58;;;22.33;;
48951;SDS011;34758;42.148;24.744;2023-02-17T04:46:28;40.35;;;23.38;;
48951;SDS011;34758;42.148;24.744;2023-02-17T04:48:56;40.95;;;23.58;;
48951;SDS011;34758;42.148;24.744;2023-02-17T04:51:23;38.67;;;22.98;;
48951;SDS011;34758;42.148;24.744;2023-02-17T04:53:53;41.33;;;23.58;;
48951;SDS011;34758;42.148;24.744;2023-02-17T04:56:20;39.30;;;22.80;;
48951;SDS011;34758;42.148;24.744;2023-02-17T04:58:47;38.83;;;22.58;;
48951;SDS011;34758;42.148;24.744;2023-02-17T05:01:14;39.63;;;23.25;;
48951;SDS011;34758;42.148;24.744;2023-02-17T05:03:43;39.25;;;21.52;;
48951;SDS011;34758;42.148;24.744;2023-02-17T05:06:10;37.58;;;21.52;;
48951;SDS011;34758;42.148;24.744;2023-02-17T05:08:37;43.08;;;23.70;;
48951;SDS011;34758;42.148;24.744;2023-02-17T05:11:05;37.58;;;22.23;;
48951;SDS011;34758;42.148;24.744;2023-02-17T05:13:33;36.03;;;20.05;;
48951;SDS011;34758;42.148;24.744;2023-02-17T05:16:00;35.67;;;20.95;;
48951;SDS011;34758;42.148;24.744;2023-02-17T05:18:27;35.15;;;20.95;;
48951;SDS011;34758;42.148;24.744;2023-02-17T05:20:56;36.72;;;20.98;;
48951;SDS011;34758;42.148;24.744;2023-02-17T05:23:23;37.45;;;20.45;;
48951;SDS011;34758;42.148;24.744;2023-02-17T05:25:52;35.70;;;19.60;;
48951;SDS011;34758;42.148;24.744;2023-02-17T05:28:21;38.40;;;20.15;;
48951;SDS011;34758;42.148;24.744;2023-02-17T05:30:49;34.97;;;20.25;;
48951;SDS011;34758;42.148;24.744;2023-02-17T05:33:17;36.97;;;20.10;;
48951;SDS011;34758;42.148;24.744;2023-02-17T05:35:44;33.97;;;20.88;;
48951;SDS011;34758;42.148;24.744;2023-02-17T05:38:12;32.28;;;20.25;;
48951;SDS011;34758;42.148;24.744;2023-02-17T05:40:39;34.72;;;20.58;;
48951;SDS011;34758;42.148;24.744;2023-02-17T05:43:09;39.05;;;21.65;;
48951;SDS011;34758;42.148;24.744;2023-02-17T05:45:36;35.72;;;20.30;;
48951;SDS011;34758;42.148;24.744;2023-02-17T05:48:03;38.40;;;21.38;;
48951;SDS011;34758;42.148;24.744;2023-02-17T05:50:30;36.05;;;22.35;;
48951;SDS011;34758;42.148;24.744;2023-02-17T05:52:57;40.55;;;23.08;;
48951;SDS011;34758;42.148;24.744;2023-02-17T05:55:31;37.00;;;21.80;;
48951;SDS011;34758;42.148;24.744;2023-02-17T05:57:58;37.90;;;22.35;;
48951;SDS011;34758;42.148;24.744;2023-02-17T06:00:27;33.95;;;20.85;;
48951;SDS011;34758;42.148;24.744;2023-02-17T06:02:58;36.88;;;22.27;;
48951;SDS011;34758;42.148;24.744;2023-02-17T06:05:28;39.72;;;24.77;;
48951;SDS011;34758;42.148;24.744;2023-02-17T06:07:57;42.85;;;24.80;;
48951;SDS011;34758;42.148;24.744;2023-02-17T06:10:23;42.60;;;25.20;;
48951;SDS011;34758;42.148;24.744;2023-02-17T06:12:55;39.42;;;24.60;;
48951;SDS011;34758;42.148;24.744;2023-02-17T06:15:24;48.80;;;26.05;;
48951;SDS011;34758;42.148;24.744;2023-02-17T06:17:55;46.15;;;26.85;;
48951;SDS011;34758;42.148;24.744;2023-02-17T06:20:25;50.35;;;26.30;;
48951;SDS011;34758;42.148;24.744;2023-02-17T06:22:53;43.03;;;25.25;;
48951;SDS011;34758;42.148;24.744;2023-02-17T06:25:25;42.05;;;24.40;;
48951;SDS011;34758;42.148;24.744;2023-02-17T06:27:58;43.45;;;25.52;;
48951;SDS011;34758;42.148;24.744;2023-02-17T06:30:25;45.08;;;26.70;;
48951;SDS011;34758;42.148;24.744;2023-02-17T06:32:53;40.55;;;26.13;;
48951;SDS011;34758;42.148;24.744;2023-02-17T06:35:23;56.42;;;26.27;;
48951;SDS011;34758;42.148;24.744;2023-02-17T06:37:52;42.72;;;24.80;;
48951;SDS011;34758;42.148;24.744;2023-02-17T06:40:19;43.97;;;26.08;;
48951;SDS011;34758;42.148;24.744;2023-02-17T06:42:48;55.42;;;28.15;;
48951;SDS011;34758;42.148;24.744;2023-02-17T06:45:17;46.58;;;25.17;;
48951;SDS011;34758;42.148;24.744;2023-02-17T06:47:44;49.47;;;26.45;;
48951;SDS011;34758;42.148;24.744;2023-02-17T06:50:12;45.78;;;25.00;;
48951;SDS011;34758;42.148;24.744;2023-02-17T06:52:40;45.40;;;26.15;;
48951;SDS011;34758;42.148;24.744;2023-02-17T06:55:13;39.58;;;24.88;;
48951;SDS011;34758;42.148;24.744;2023-02-17T06:57:42;47.88;;;24.67;;
48951;SDS011;34758;42.148;24.744;2023-02-17T07:00:12;50.90;;;26.77;;
48951;SDS011;34758;42.148;24.744;2023-02-17T07:02:43;49.05;;;26.15;;
48951;SDS011;34758;42.148;24.744;2023-02-17T07:05:10;44.40;;;27.38;;
48951;SDS011;34758;42.148;24.744;2023-02-17T07:07:39;65.78;;;34.25;;
48951;SDS011;34758;42.148;24.744;2023-02-17T07:10:06;73.88;;;39.03;;
48951;SDS011;34758;42.148;24.744;2023-02-17T07:12:34;57.30;;;28.98;;
48951;SDS011;34758;42.148;24.744;2023-02-17T07:15:05;45.88;;;29.70;;
48951;SDS011;34758;42.148;24.744;2023-02-17T07:17:33;54.78;;;30.58;;
48951;SDS011;34758;42.148;24.744;2023-02-17T07:20:03;53.47;;;29.70;;
48951;SDS011;34758;42.148;24.744;2023-02-17T07:22:33;45.38;;;26.17;;
48951;SDS011;34758;42.148;24.744;2023-02-17T07:25:02;45.15;;;27.83;;
48951;SDS011;34758;42.148;24.744;2023-02-17T07:27:30;45.63;;;27.50;;
48951;SDS011;34758;42.148;24.744;2023-02-17T07:30:11;48.13;;;26.20;;
48951;SDS011;34758;42.148;24.744;2023-02-17T07:32:40;48.15;;;25.45;;
48951;SDS011;34758;42.148;24.744;2023-02-17T07:35:10;44.10;;;23.05;;
48951;SDS011;34758;42.148;24.744;2023-02-17T07:37:36;42.90;;;24.52;;
48951;SDS011;34758;42.148;24.744;2023-02-17T07:40:04;48.47;;;22.95;;
48951;SDS011;34758;42.148;24.744;2023-02-17T07:42:35;37.40;;;23.38;;
48951;SDS011;34758;42.148;24.744;2023-02-17T07:45:08;37.78;;;22.25;;
48951;SDS011;34758;42.148;24.744;2023-02-17T07:47:35;30.95;;;19.65;;
48951;SDS011;34758;42.148;24.744;2023-02-17T07:50:02;35.75;;;20.92;;
48951;SDS011;34758;42.148;24.744;2023-02-17T07:52:33;33.13;;;20.95;;
48951;SDS011;34758;42.148;24.744;2023-02-17T07:55:00;27.35;;;17.70;;
48951;SDS011;34758;42.148;24.744;2023-02-17T07:57:28;31.15;;;18.98;;
48951;SDS011;34758;42.148;24.744;2023-02-17T07:59:56;34.80;;;20.23;;
48951;SDS011;34758;42.148;24.744;2023-02-17T08:02:23;33.60;;;19.63;;
48951;SDS011;34758;42.148;24.744;2023-02-17T08:04:51;27.98;;;19.13;;
48951;SDS011;34758;42.148;24.744;2023-02-17T08:07:22;33.05;;;19.25;;
48951;SDS011;34758;42.148;24.744;2023-02-17T08:09:51;28.85;;;18.20;;
48951;SDS011;34758;42.148;24.744;2023-02-17T08:12:37;34.05;;;19.35;;
48951;SDS011;34758;42.148;24.744;2023-02-17T08:15:22;30.25;;;19.38;;
48951;SDS011;34758;42.148;24.744;2023-02-17T08:17:49;31.35;;;19.90;;
48951;SDS011;34758;42.148;24.744;2023-02-17T08:20:17;36.13;;;19.98;;
48951;SDS011;34758;42.148;24.744;2023-02-17T08:22:44;36.58;;;20.15;;
48951;SDS011;34758;42.148;24.744;2023-02-17T08:25:13;36.85;;;21.65;;
48951;SDS011;34758;42.148;24.744;2023-02-17T08:27:41;32.15;;;19.88;;
48951;SDS011;34758;42.148;24.744;2023-02-17T08:30:09;38.05;;;23.27;;
48951;SDS011;34758;42.148;24.744;2023-02-17T08:32:37;32.75;;;20.95;;
48951;SDS011;34758;42.148;24.744;2023-02-17T08:35:04;39.80;;;24.65;;
48951;SDS011;34758;42.148;24.744;2023-02-17T08:37:34;68.78;;;36.78;;
48951;SDS011;34758;42.148;24.744;2023-02-17T08:40:02;66.47;;;35.33;;
48951;SDS011;34758;42.148;24.744;2023-02-17T08:42:32;61.13;;;32.50;;
48951;SDS011;34758;42.148;24.744;2023-02-17T08:45:00;60.85;;;34.97;;
48951;SDS011;34758;42.148;24.744;2023-02-17T08:47:30;77.97;;;39.90;;
48951;SDS011;34758;42.148;24.744;2023-02-17T08:49:57;79.70;;;42.28;;
48951;SDS011;34758;42.148;24.744;2023-02-17T08:52:25;65.20;;;38.40;;
48951;SDS011;34758;42.148;24.744;2023-02-17T08:54:53;77.60;;;46.00;;
48951;SDS011;34758;42.148;24.744;2023-02-17T08:57:21;53.75;;;32.10;;
48951;SDS011;34758;42.148;24.744;2023-02-17T08:59:50;57.63;;;32.63;;
48951;SDS011;34758;42.148;24.744;2023-02-17T09:02:17;51.78;;;31.75;;
48951;SDS011;34758;42.148;24.744;2023-02-17T09:04:44;58.75;;;30.40;;
48951;SDS011;34758;42.148;24.744;2023-02-17T09:07:11;58.38;;;35.88;;
48951;SDS011;34758;42.148;24.744;2023-02-17T09:09:40;59.75;;;30.80;;
48951;SDS011;34758;42.148;24.744;2023-02-17T09:12:07;62.80;;;36.03;;
48951;SDS011;34758;42.148;24.744;2023-02-17T09:14:34;53.33;;;32.22;;
48951;SDS011;34758;42.148;24.744;2023-02-17T09:17:04;60.30;;;37.90;;
48951;SDS011;34758;42.148;24.744;2023-02-17T09:19:31;54.50;;;33.10;;
48951;SDS011;34758;42.148;24.744;2023-02-17T09:21:58;69.22;;;41.13;;
48951;SDS011;34758;42.148;24.744;2023-02-17T09:24:25;59.55;;;35.20;;
48951;SDS011;34758;42.148;24.744;2023-02-17T09:26:52;55.80;;;29.63;;
48951;SDS011;34758;42.148;24.744;2023-02-17T09:29:19;54.00;;;31.70;;
48951;SDS011;34758;42.148;24.744;2023-02-17T09:31:48;40.90;;;23.30;;
48951;SDS011;34758;42.148;24.744;2023-02-17T09:34:20;47.90;;;24.58;;
48951;SDS011;34758;42.148;24.744;2023-02-17T09:36:47;18.30;;;11.45;;
48951;SDS011;34758;42.148;24.744;2023-02-17T09:39:20;20.10;;;9.32;;
48951;SDS011;34758;42.148;24.744;2023-02-17T09:41:48;10.20;;;7.03;;
48951;SDS011;34758;42.148;24.744;2023-02-17T09:44:18;8.18;;;4.50;;
48951;SDS011;34758;42.148;24.744;2023-02-17T09:46:56;6.65;;;4.53;;
48951;SDS011;34758;42.148;24.744;2023-02-17T09:49:32;9.88;;;4.53;;
48951;SDS011;34758;42.148;24.744;2023-02-17T09:52:03;8.00;;;4.97;;
48951;SDS011;34758;42.148;24.744;2023-02-17T09:54:33;9.45;;;4.25;;
48951;SDS011;34758;42.148;24.744;2023-02-17T09:57:04;8.30;;;5.13;;
48951;SDS011;34758;42.148;24.744;2023-02-17T09:59:37;7.75;;;4.50;;
48951;SDS011;34758;42.148;24.744;2023-02-17T10:02:10;6.75;;;4.28;;
48951;SDS011;34758;42.148;24.744;2023-02-17T10:04:43;8.18;;;4.90;;
48951;SDS011;34758;42.148;24.744;2023-02-17T10:07:15;7.32;;;4.50;;
48951;SDS011;34758;42.148;24.744;2023-02-17T10:09:45;7.28;;;5.15;;
48951;SDS011;34758;42.148;24.744;2023-02-17T10:12:14;6.60;;;4.95;;
48951;SDS011;34758;42.148;24.744;2023-02-17T10:14:45;7.25;;;3.92;;
48951;SDS011;34758;42.148;24.744;2023-02-17T10:17:16;8.65;;;5.47;;
48951;SDS011;34758;42.148;24.744;2023-02-17T10:19:49;8.90;;;5.03;;
48951;SDS011;34758;42.148;24.744;2023-02-17T10:22:19;7.93;;;5.22;;
48951;SDS011;34758;42.148;24.744;2023-02-17T10:24:47;7.50;;;4.70;;
48951;SDS011;34758;42.148;24.744;2023-02-17T10:32:58;7.82;;;4.70;;
48951;SDS011;34758;42.148;24.744;2023-02-17T10:35:36;7.40;;;4.72;;
48951;SDS011;34758;42.148;24.744;2023-02-17T10:38:11;7.27;;;3.87;;
48951;SDS011;34758;42.148;24.744;2023-02-17T10:40:44;6.30;;;4.18;;
48951;SDS011;34758;42.148;24.744;2023-02-17T10:43:14;5.18;;;4.07;;
48951;SDS011;34758;42.148;24.744;2023-02-17T10:45:48;6.07;;;4.60;;
48951;SDS011;34758;42.148;24.744;2023-02-17T10:48:17;5.70;;;4.07;;
48951;SDS011;34758;42.148;24.744;2023-02-17T10:50:47;5.72;;;3.53;;
48951;SDS011;34758;42.148;24.744;2023-02-17T10:53:16;7.13;;;4.00;;
48951;SDS011;34758;42.148;24.744;2023-02-17T10:55:48;6.25;;;4.22;;
48951;SDS011;34758;42.148;24.744;2023-02-17T10:58:21;5.97;;;4.25;;
48951;SDS011;34758;42.148;24.744;2023-02-17T11:00:51;8.53;;;4.43;;
48951;SDS011;34758;42.148;24.744;2023-02-17T11:03:23;8.35;;;4.00;;
48951;SDS011;34758;42.148;24.744;2023-02-17T11:06:05;6.43;;;4.38;;
48951;SDS011;34758;42.148;24.744;2023-02-17T11:08:43;6.18;;;4.05;;
48951;SDS011;34758;42.148;24.744;2023-02-17T11:11:18;9.10;;;3.63;;
48951;SDS011;34758;42.148;24.744;2023-02-17T11:13:56;7.35;;;4.40;;
48951;SDS011;34758;42.148;24.744;2023-02-17T11:16:31;7.00;;;4.00;;
48951;SDS011;34758;42.148;24.744;2023-02-17T11:18:59;6.43;;;4.03;;
48951;SDS011;34758;42.148;24.744;2023-02-17T11:21:28;6.60;;;3.55;;
48951;SDS011;34758;42.148;24.744;2023-02-17T11:23:58;5.38;;;3.80;;
48951;SDS011;34758;42.148;24.744;2023-02-17T11:26:29;8.15;;;4.15;;
48951;SDS011;34758;42.148;24.744;2023-02-17T11:29:06;5.22;;;3.50;;
48951;SDS011;34758;42.148;24.744;2023-02-17T11:31:37;6.03;;;3.97;;
48951;SDS011;34758;42.148;24.744;2023-02-17T11:34:12;7.32;;;4.25;;
48951;SDS011;34758;42.148;24.744;2023-02-17T11:36:43;5.65;;;4.80;;
48951;SDS011;34758;42.148;24.744;2023-02-17T11:39:18;8.45;;;4.53;;
48951;SDS011;34758;42.148;24.744;2023-02-17T11:41:47;7.78;;;5.07;;
48951;SDS011;34758;42.148;24.744;2023-02-17T11:44:21;7.00;;;5.38;;
48951;SDS011;34758;42.148;24.744;2023-02-17T11:46:51;7.10;;;3.80;;
48951;SDS011;34758;42.148;24.744;2023-02-17T11:52:36;7.85;;;5.00;;
48951;SDS011;34758;42.148;24.744;2023-02-17T11:55:28;5.85;;;3.22;;
48951;SDS011;34758;42.148;24.744;2023-02-17T11:58:07;3.65;;;2.30;;
48951;SDS011;34758;42.148;24.744;2023-02-17T12:00:44;3.50;;;2.17;;
48951;SDS011;34758;42.148;24.744;2023-02-17T12:06:25;4.75;;;2.28;;
48951;SDS011;34758;42.148;24.744;2023-02-17T12:09:05;3.85;;;2.20;;
48951;SDS011;34758;42.148;24.744;2023-02-17T12:11:39;4.57;;;2.38;;
48951;SDS011;34758;42.148;24.744;2023-02-17T12:14:15;5.35;;;2.30;;
48951;SDS011;34758;42.148;24.744;2023-02-17T12:16:52;5.03;;;2.50;;
48951;SDS011;34758;42.148;24.744;2023-02-17T12:19:27;3.38;;;2.20;;
48951;SDS011;34758;42.148;24.744;2023-02-17T12:22:02;7.47;;;2.00;;
48951;SDS011;34758;42.148;24.744;2023-02-17T12:24:42;4.70;;;2.28;;
48951;SDS011;34758;42.148;24.744;2023-02-17T12:27:29;4.22;;;2.72;;
48951;SDS011;34758;42.148;24.744;2023-02-17T12:30:07;3.92;;;2.45;;
48951;SDS011;34758;42.148;24.744;2023-02-17T12:32:49;4.38;;;2.17;;
48951;SDS011;34758;42.148;24.744;2023-02-17T12:35:27;4.32;;;1.63;;
48951;SDS011;34758;42.148;24.744;2023-02-17T12:38:07;7.22;;;2.08;;
48951;SDS011;34758;42.148;24.744;2023-02-17T12:40:41;4.95;;;2.08;;
48951;SDS011;34758;42.148;24.744;2023-02-17T12:43:15;7.10;;;2.00;;
48951;SDS011;34758;42.148;24.744;2023-02-17T12:45:53;5.10;;;2.42;;
48951;SDS011;34758;42.148;24.744;2023-02-17T12:48:27;4.80;;;2.17;;
48951;SDS011;34758;42.148;24.744;2023-02-17T12:50:59;5.82;;;2.47;;
48951;SDS011;34758;42.148;24.744;2023-02-17T12:53:42;6.38;;;2.17;;
48951;SDS011;34758;42.148;24.744;2023-02-17T12:59:20;4.45;;;2.58;;
48951;SDS011;34758;42.148;24.744;2023-02-17T13:01:55;4.50;;;2.83;;
48951;SDS011;34758;42.148;24.744;2023-02-17T13:04:25;5.97;;;2.20;;
48951;SDS011;34758;42.148;24.744;2023-02-17T13:07:00;4.38;;;1.80;;
48951;SDS011;34758;42.148;24.744;2023-02-17T13:09:36;7.85;;;2.08;;
48951;SDS011;34758;42.148;24.744;2023-02-17T13:12:15;6.00;;;1.90;;
48951;SDS011;34758;42.148;24.744;2023-02-17T13:14:46;3.83;;;1.70;;
48951;SDS011;34758;42.148;24.744;2023-02-17T13:17:22;3.15;;;2.05;;
48951;SDS011;34758;42.148;24.744;2023-02-17T13:20:05;5.72;;;2.22;;
48951;SDS011;34758;42.148;24.744;2023-02-17T13:23:03;4.55;;;2.80;;
48951;SDS011;34758;42.148;24.744;2023-02-17T13:25:33;9.05;;;2.88;;
48951;SDS011;34758;42.148;24.744;2023-02-17T13:28:01;4.95;;;3.03;;
48951;SDS011;34758;42.148;24.744;2023-02-17T13:30:49;4.43;;;2.92;;
48951;SDS011;34758;42.148;24.744;2023-02-17T13:33:26;3.25;;;2.70;;
48951;SDS011;34758;42.148;24.744;2023-02-17T13:35:55;5.60;;;2.75;;
48951;SDS011;34758;42.148;24.744;2023-02-17T13:38:26;3.38;;;2.40;;
48951;SDS011;34758;42.148;24.744;2023-02-17T13:40:57;3.22;;;2.55;;
48951;SDS011;34758;42.148;24.744;2023-02-17T13:43:28;7.45;;;2.80;;
48951;SDS011;34758;42.148;24.744;2023-02-17T13:46:01;6.25;;;3.22;;
48951;SDS011;34758;42.148;24.744;2023-02-17T13:48:30;22.17;;;10.82;;
48951;SDS011;34758;42.148;24.744;2023-02-17T13:50:59;12.52;;;5.68;;
48951;SDS011;34758;42.148;24.744;2023-02-17T13:53:28;14.50;;;6.60;;
48951;SDS011;34758;42.148;24.744;2023-02-17T13:55:58;5.60;;;2.42;;
48951;SDS011;34758;42.148;24.744;2023-02-17T13:58:29;4.32;;;2.22;;
48951;SDS011;34758;42.148;24.744;2023-02-17T14:01:03;3.88;;;2.42;;
48951;SDS011;34758;42.148;24.744;2023-02-17T14:03:33;5.18;;;2.92;;
48951;SDS011;34758;42.148;24.744;2023-02-17T14:06:01;5.35;;;3.00;;
48951;SDS011;34758;42.148;24.744;2023-02-17T14:08:33;7.55;;;2.63;;
48951;SDS011;34758;42.148;24.744;2023-02-17T14:11:04;4.65;;;2.65;;
48951;SDS011;34758;42.148;24.744;2023-02-17T14:13:33;6.07;;;3.25;;
48951;SDS011;34758;42.148;24.744;2023-02-17T14:16:04;5.25;;;2.80;;
48951;SDS011;34758;42.148;24.744;2023-02-17T14:18:33;4.03;;;2.90;;
48951;SDS011;34758;42.148;24.744;2023-02-17T14:21:10;7.28;;;3.15;;
48951;SDS011;34758;42.148;24.744;2023-02-17T14:23:51;5.25;;;2.53;;
48951;SDS011;34758;42.148;24.744;2023-02-17T14:26:26;5.15;;;3.25;;
48951;SDS011;34758;42.148;24.744;2023-02-17T14:28:56;5.72;;;3.60;;
48951;SDS011;34758;42.148;24.744;2023-02-17T14:31:25;4.65;;;3.55;;
48951;SDS011;34758;42.148;24.744;2023-02-17T14:33:55;7.03;;;3.55;;
48951;SDS011;34758;42.148;24.744;2023-02-17T14:36:29;5.40;;;3.05;;
48951;SDS011;34758;42.148;24.744;2023-02-17T14:39:02;8.85;;;3.55;;
48951;SDS011;34758;42.148;24.744;2023-02-17T14:41:29;4.32;;;3.17;;
48951;SDS011;34758;42.148;24.744;2023-02-17T14:43:59;6.38;;;3.22;;
48951;SDS011;34758;42.148;24.744;2023-02-17T14:46:28;5.90;;;3.72;;
48951;SDS011;34758;42.148;24.744;2023-02-17T14:48:57;7.22;;;3.67;;
48951;SDS011;34758;42.148;24.744;2023-02-17T14:51:30;4.20;;;3.35;;
48951;SDS011;34758;42.148;24.744;2023-02-17T14:54:00;6.30;;;3.63;;
48951;SDS011;34758;42.148;24.744;2023-02-17T14:56:31;6.03;;;3.80;;
48951;SDS011;34758;42.148;24.744;2023-02-17T15:01:31;8.13;;;4.70;;